NCAR-RAP Real-Time Weather Data

Output produced by METARs form (10 April 2020  07:04 UTC)
found at http://weather.rap.ucar.edu/surface/
 
KDLH 100655Z 32009KT 9SM OVC041 M02/M08 A2999 RMK AO2 SNE54 SLP178 P0000 T10221083
KDLH 100555Z 32010KT 9SM -SN OVC040 M02/M08 A2998 RMK AO2 SNB24 SLP174 PCPN VRY LGT P0000 60000 T10221083 10006 21022 400171028 53006
KDLH 100455Z 32012G21KT 10SM SCT033 OVC043 M02/M08 A2998 RMK AO2 SLP172 T10171078
KDLH 100355Z 31009G19KT 10SM OVC034 M01/M08 A2997 RMK AO2 SNE18 SLP168 P0000 T10111078
KDLH 100255Z 32011G18KT 9SM -SN OVC041 M01/M08 A2996 RMK AO2 SLP168 P0000 60000 T10111078 53015
KDLH 100155Z 32012G24KT 9SM -SN BKN036 OVC045 M01/M06 A2995 RMK AO2 SLP162 P0000 T10061061
KDLH 100055Z 31015G20KT 7SM -SN OVC039 00/M07 A2993 RMK AO2 SNB37 SLP157 P0000 T00001067
KDLH 092355Z 32012G21KT 10SM FEW037 OVC050 01/M07 A2992 RMK AO2 SNB2257E45 SLP151 P0000 60000 T00061067 10017 21006 53018
KDLH 092255Z 32015G23KT 9SM SCT037 OVC055 01/M06 A2990 RMK AO2 SLP143 T00111061
KDLH 092155Z 32017G24KT 10SM SCT037 BKN046 01/M07 A2988 RMK AO2 PK WND 34028/2144 SNB2059E13 SLP137 P0000 T00111067
KDLH 092055Z 32014G24KT 10SM FEW035 OVC046 01/M06 A2986 RMK AO2 PK WND 32029/2017 SLP131 60000 T00111061 53013
KDLH 091955Z 34018G31KT 10SM SCT043 02/M06 A2985 RMK AO2 PK WND 35033/1916 SLP126 T00171061
KDLH 091855Z 31017G31KT 10SM BKN044 01/M08 A2983 RMK AO2 PK WND 31031/1852 SNE13 SLP121 P0000 T00061078
KDLH 091755Z 32017G29KT 10SM -SN SCT036 BKN046 OVC060 M01/M08 A2982 RMK AO2 PK WND 31029/1748 SNB1658 SLP119 P0000 60011 T10061078 10006 21028 51025
KDLH 091655Z 32013G24KT 7SM FEW033 BKN055 OVC070 00/M09 A2980 RMK AO2 PK WND 33028/1617 SNB35E45 SLP110 P0000 T00001089
KDLH 091624Z 35015G28KT 10SM SCT027 SCT032 BKN065 00/M08 A2979 RMK AO2 PK WND 33028/1617 T00001078
KDLH 091608Z 33018G26KT 10SM BKN027 BKN035 00/M07 A2978 RMK AO2 PK WND 32026/1607 T00001072
KDLH 091555Z 34016G26KT 10SM FEW024 BKN030 BKN042 00/M07 A2977 RMK AO2 PK WND 33026/1537 SNB04E47 SLP101 P0000 T00001067
KDLH 091455Z 34016G30KT 7SM SCT024 SCT030 BKN041 M01/M07 A2975 RMK AO2 PK WND 35030/1454 SLP093 60011 T10111067 51010
KDLH 091446Z 34015G21KT 7SM FEW020 SCT030 BKN041 M01/M06 A2974 RMK AO2 T10111061
KDLH 091439Z 32013G21KT 2 1/2SM HZ FEW018 SCT031 BKN070 M02/M07 A2974 RMK AO2 T10171067
KDLH 091355Z 33008G16KT 7SM FEW013 FEW018 BKN090 M02/M06 A2974 RMK AO2 SNE21 SLP092 P0003 T10221056
KDLH 091320Z 34006KT 7SM R09/3000VP6000FT -SN SCT010 SCT021 BKN050 M03/M05 A2974 RMK AO2 P0003 T10281050
KDLH 091314Z 34007KT 1/2SM R09/1800VP6000FT -SN FEW007 BKN013 OVC023 M03/M05 A2973 RMK AO2 SFC VIS 3 P0003 T10281050
KDLH 091301Z 01011G16KT 1/4SM R09/1800V2600FT SN FZFG BKN005 OVC011 M03/M04 A2973 RMK AO2 TWR VIS 1/2 P0000 T10281044
KDLH 091255Z 34007KT 1/2SM R09/1600V2600FT SN FZFG BKN004 OVC013 M02/M04 A2973 RMK AO2 SLP085 SNINCR 1/3 P0008 T10221039
KDLH 091242Z 32005KT 1/4SM R09/3000VP6000FT +SN FZFG BKN004 BKN012 OVC033 M02/M04 A2972 RMK AO2 P0006 T10221039
KDLH 091237Z 33004KT 1/2SM R09/3000VP6000FT -SN BR BKN008 BKN012 OVC032 M02/M04 A2972 RMK AO2 SFC VIS 1 1/4 VIS 1/4 RWY 27 P0005 T10221039
KDLH 091234Z 31005KT 1 1/2SM R09/5000VP6000FT -SN BR FEW005 BKN010 OVC032 M02/M04 A2972 RMK AO2 TWR VIS 2 VIS 1/2 RWY 27 P0004 T10221044
KDLH 091215Z 33008KT 1SM R09/P6000FT -SN BR SCT010 BKN020 OVC030 M03/M04 A2972 RMK AO2 TWR VIS 2 P0003 T10281044
KDLH 091203Z 32009KT 3/4SM R09/4500VP6000FT -SN BR SCT010 OVC026 M03/M04 A2972 RMK AO2 TWR VIS 2 P0001 T10281044
KDLH 091155Z 33007KT 2SM R09/5500VP6000FT -SN BR FEW013 SCT018 OVC028 M02/M04 A2972 RMK AO2 SFC VIS 2 1/2 VIS 1 RWY 27 SLP080 P0001 60001 70001 T10221044 11011 21022 53006
KDLH 091147Z 33009KT 2SM R09/5500VP6000FT -SN BR FEW013 FEW018 OVC025 M02/M04 A2971 RMK AO2 VIS 3/4 RWY 27 P0001 T10221044
KDLH 091138Z 33009KT 1 3/4SM -SN SCT016 BKN027 OVC080 M02/M05 A2971 RMK AO2 TWR VIS 2 P0000 T10171050
KDLH 091055Z 30010KT 9SM -SN BKN047 OVC065 M01/M06 A2970 RMK AO2 SLP071 P0000 T10111056
KDLH 091018Z 29009KT 9SM -SN FEW017 BKN041 OVC050 M01/M05 A2969 RMK AO2 P0000 T10111050
KDLH 090955Z 28013KT 9SM -SN BKN019 BKN028 OVC032 M01/M04 A2970 RMK AO2 SLP071 P0000 T10111044
KDLH 090855Z 30009G17KT 9SM -SN SCT017 BKN022 OVC034 M01/M04 A2970 RMK AO2 SLP071 P0000 60000 T10111044 58010